Date,TemperatureHighF,TemperatureAvgF,TemperatureLowF,DewpointHighF,DewpointAvgF,DewpointLowF,HumidityHigh,HumidityAvg,HumidityLow,PressureMaxIn,PressureMinIn,WindSpeedMaxMPH,WindSpeedAvgMPH,GustSpeedMaxMPH,PrecipitationSumIn
2014-2-6,33,29,27,28,26,24,92,86,79,30.42,30.32,10,5,10,0.13
2014-2-7,36,31,25,28,26,23,92,83,72,30.41,30.26,7,3,9,0.00
2014-2-8,50,39,30,39,34,27,93,83,65,30.27,30.12,6,0,8,0.00
2014-2-9,52,43,38,43,39,36,95,86,69,30.15,30.06,8,2,11,0.00
2014-2-10,39,34,30,38,31,22,100,88,71,30.24,30.10,11,6,14,0.00
2014-2-11,39,32,25,30,26,21,97,77,58,30.29,30.18,10,4,14,0.01
2014-2-12,36,35,33,36,34,24,100,95,64,30.16,29.86,6,1,8,0.09
2014-3-14,67,54,38,43,35,31,76,53,31,30.23,30.04,14,3,14,0.00
2014-3-15,70,56,43,49,41,-100,86,62,45,30.12,29.95,4,0,6,0.00
2014-3-16,63,57,43,59,54,43,100,89,68,29.93,29.57,11,3,13,1.55
2014-3-17,41,37,35,41,34,-100,100,95,92,29.83,29.67,11,6,11,1.32
2014-3-18,53,48,39,48,45,39,100,90,80,29.98,29.80,6,2,8,0.00
2014-3-19,61,53,48,53,50,47,95,88,73,30.08,29.98,12,4,13,0.00
2014-3-20,66,52,41,46,38,33,97,63,30,30.18,30.06,7,3,11,0.00
2014-3-28,69,61,53,59,56,51,96,86,66,30.03,29.93,10,3,12,0.28
2014-3-29,60,53,46,59,48,-100,99,87,78,30.16,29.80,19,6,19,0.01
2014-3-30,67,51,41,42,38,35,85,64,35,30.23,30.12,10,3,14,0.24
2014-3-31,78,57,36,42,35,28,94,53,16,30.18,30.02,6,1,6,0.00
2014-4-1,84,68,57,49,40,-100,65,40,15,30.13,30.00,6,1,7,0.00
2014-4-2,82,68,55,60,54,47,80,63,40,30.09,30.00,9,2,10,0.00
2014-4-3,81,72,63,63,61,59,91,71,53,30.01,29.85,11,4,13,0.00
2014-5-13,86,75,70,65,64,63,79,68,47,30.06,30.02,1,0,0,0.00
2014-5-14,79,70,57,71,67,57,100,89,68,30.05,29.87,8,2,11,1.56
2014-5-15,65,56,48,56,50,46,100,84,56,30.11,29.95,9,3,14,1.12
2014-5-16,68,56,47,55,46,42,100,72,41,30.11,30.03,12,2,13,0.00
2014-5-17,66,55,47,58,50,-100,97,87,71,30.22,30.09,9,2,11,0.39
2014-5-18,67,59,54,63,58,53,100,95,82,30.21,30.15,4,0,5,0.53
2014-5-19,78,61,53,64,51,-100,100,81,60,30.24,30.12,5,0,9,0.69
2014-5-20,85,71,61,66,56,-100,97,66,35,30.21,30.08,11,3,11,0.01
2014-5-21,86,75,62,67,63,58,94,69,44,30.16,30.05,9,3,13,0.00
2014-5-22,87,74,62,68,62,-100,99,73,51,30.14,30.04,10,2,14,0.00
2014-5-24,88,74,63,71,62,-100,97,71,46,30.12,30.02,6,1,7,0.00
2014-5-25,88,76,67,71,66,61,96,72,43,30.11,30.04,7,2,12,0.00
2014-5-26,88,77,67,71,67,63,90,74,53,30.16,30.05,7,1,6,0.00
2014-5-27,84,76,67,71,68,64,95,77,56,30.11,29.98,12,2,12,0.00
2014-5-28,86,73,65,70,66,62,99,81,56,30.02,29.95,8,1,8,0.13
2014-5-29,79,70,66,71,69,66,100,96,72,30.04,29.95,3,0,3,0.98
2014-5-30,84,72,69,71,69,68,100,93,59,30.05,29.99,3,0,3,0.14
2014-5-31,87,71,65,71,58,-100,100,74,52,30.09,29.99,3,0,3,0.04
2014-6-1,85,76,69,72,70,67,96,83,61,30.15,30.07,7,2,7,0.16
2014-6-2,81,74,70,67,66,65,87,76,58,30.18,30.10,7,2,9,0.27
2014-6-3,83,74,67,73,69,65,97,85,68,30.12,29.98,5,0,4,0.02
2014-6-4,87,78,69,73,70,69,100,79,58,30.00,29.85,11,3,12,0.02
2014-6-5,87,76,66,75,70,64,100,84,62,29.94,29.81,15,3,15,1.76
2014-6-6,82,72,65,74,69,65,100,92,74,29.97,29.91,7,1,7,1.87
2014-6-7,87,76,68,73,65,-100,100,76,57,30.00,29.88,12,2,12,0.63
2014-6-8,84,74,66,72,69,65,100,86,60,29.98,29.88,6,2,11,2.84
2014-6-9,84,74,67,71,68,65,100,82,64,29.93,29.84,7,2,8,0.01
2014-6-11,78,72,67,71,68,66,100,89,71,29.84,29.78,7,4,7,0.19
2014-6-12,85,72,65,74,68,65,100,89,55,29.93,29.82,4,1,8,0.58
2014-6-13,83,74,68,69,68,64,97,82,60,29.98,29.86,7,1,7,0.00
2014-6-14,84,61,65,69,42,-100,95,84,59,30.03,29.97,3,1,5,0.00
2014-6-15,90,80,68,71,67,64,96,66,43,30.09,29.99,9,2,9,0.00
2014-6-16,89,72,67,69,66,65,97,86,45,30.17,30.08,0,0,0,0.00
2014-6-17,88,79,72,72,70,68,87,75,58,30.16,30.07,4,1,9,0.00
2014-6-18,92,80,70,76,70,69,97,75,48,30.12,30.05,7,1,6,0.00
2014-6-19,90,80,71,73,71,69,96,77,56,30.16,30.05,4,1,4,0.00
2014-6-20,90,80,72,77,74,70,97,83,52,30.09,29.99,5,1,5,0.00
2014-6-21,93,78,72,77,66,-100,99,73,47,30.01,29.87,7,2,7,0.01
2014-6-22,92,80,69,74,70,67,96,74,48,29.96,29.85,5,1,5,0.00
2014-6-23,91,76,69,73,70,68,97,82,50,29.99,29.90,7,2,7,0.00
2014-6-24,84,79,72,73,71,70,94,78,66,30.02,29.97,9,6,9,0.00
2014-6-25,85,77,70,74,71,69,99,84,60,30.07,29.99,8,2,8,0.06
2014-7-3,84,76,70,69,64,60,90,68,48,30.08,30.01,7,4,8,0.00
2014-7-4,82,70,62,62,59,56,93,68,46,30.19,30.13,5,2,8,0.00
2014-7-5,86,64,62,66,45,-100,80,61,51,30.20,30.13,6,2,6,0.00
2014-7-6,88,77,68,68,66,63,83,69,49,30.10,29.99,0,0,3,0.00
2014-7-7,87,76,68,69,68,67,98,80,52,30.02,29.98,1,0,3,0.00
2014-7-8,86,77,71,72,70,69,97,81,63,30.03,29.94,8,2,8,0.18
2014-7-9,82,71,69,72,70,69,100,98,72,30.04,29.98,5,0,6,1.67
2014-7-15,83,76,70,73,68,59,96,78,53,29.93,29.87,7,2,9,0.00
2014-7-16,81,72,60,59,57,56,86,62,46,29.99,29.93,7,5,9,0.00
2014-7-17,81,74,63,61,58,55,77,58,45,30.05,29.99,5,1,4,0.00
2014-7-18,70,68,65,67,64,61,100,88,72,30.10,30.02,4,0,7,0.49
2014-7-19,82,71,67,76,67,67,100,89,70,29.99,29.94,6,2,9,2.69
2014-7-20,86,78,70,71,69,67,99,76,58,30.03,29.98,5,2,5,0.32
2014-7-21,86,77,70,74,71,68,95,83,61,30.07,29.99,7,2,9,0.00
2014-7-22,89,80,73,75,73,71,96,81,59,30.11,30.03,2,0,7,0.00
2014-7-25,88,75,65,70,67,64,98,77,51,30.05,29.96,5,1,6,0.01
2014-7-26,89,68,64,71,62,64,100,77,52,30.04,29.96,5,1,6,0.00
2014-7-27,92,82,73,76,74,72,96,78,58,30.01,29.93,6,3,6,0.00
2014-7-28,83,80,74,76,69,63,88,70,51,29.98,29.91,8,1,10,0.00
2014-7-29,80,71,63,63,60,56,91,72,46,30.06,29.98,7,3,11,0.00
2014-7-30,84,72,60,63,60,57,91,68,47,30.09,30.03,6,2,10,0.00
2014-7-31,81,70,67,66,59,61,83,69,56,30.08,30.04,4,2,5,0.00
2014-8-1,86,71,66,69,66,62,96,86,55,30.05,30.00,4,0,6,0.00
2014-8-2,87,74,69,73,66,67,100,72,58,30.07,30.01,6,1,7,0.07
2014-8-3,89,77,66,73,68,65,100,77,50,30.09,29.99,3,0,7,0.05
2014-8-4,89,80,66,72,66,61,97,66,44,30.08,29.99,4,1,5,0.01
2014-8-5,81,69,62,69,63,59,94,83,58,30.08,30.01,0,0,0,0.00
2014-8-6,93,81,68,71,69,65,95,70,48,30.05,29.96,6,1,7,0.00
2014-8-16,93,78,64,70,65,62,97,68,38,30.04,29.96,6,1,7,0.00
2014-8-17,89,76,68,76,71,65,95,86,58,30.00,29.91,8,1,8,0.58
2014-8-18,83,74,71,81,73,71,100,96,77,29.95,29.84,7,1,7,0.58
2014-8-19,90,79,71,76,73,71,100,85,59,29.94,29.86,5,1,8,1.82
2014-8-20,94,82,73,78,75,72,100,80,54,30.09,29.92,7,2,7,0.02
2014-8-21,95,82,71,75,71,69,95,74,46,30.13,30.05,7,1,5,0.00
2014-8-22,95,83,73,78,72,69,99,74,45,30.12,29.99,6,1,6,0.00
2014-9-11,91,79,75,79,74,71,95,85,57,30.03,29.94,9,3,10,0.59
2014-9-12,85,76,71,75,72,68,97,87,68,30.07,29.99,8,4,8,0.59
2014-9-13,75,66,61,67,62,58,94,83,67,30.19,30.06,10,5,12,0.00
2014-9-14,86,70,58,67,62,57,98,78,51,30.20,30.10,7,2,7,0.00
2014-9-15,87,74,64,73,68,61,96,84,60,30.16,30.06,5,0,7,0.00
2014-9-16,88,76,68,71,69,65,98,80,56,30.10,29.98,8,2,11,0.00
2014-9-17,82,71,64,65,61,56,96,72,44,30.02,29.90,7,2,7,0.00
2014-9-18,86,70,63,67,64,58,97,80,53,29.99,29.91,5,1,8,0.44
2014-9-19,89,75,63,69,65,61,94,74,52,30.06,29.97,6,0,7,0.35
2014-9-20,87,74,66,69,64,62,90,72,49,30.13,29.98,6,1,7,0.00
2014-9-21,90,75,63,70,66,58,99,76,47,30.04,29.90,8,3,10,0.00
2014-9-22,78,68,58,57,53,49,83,60,39,30.15,30.02,9,4,11,0.00
2014-9-23,82,67,53,61,54,48,88,65,41,30.21,30.12,8,2,8,0.00
2014-9-24,83,70,59,61,58,55,90,67,44,30.28,30.16,7,1,6,0.00
2014-9-25,86,70,57,65,59,56,97,71,41,30.25,30.10,7,1,10,0.00
2014-9-26,84,73,65,66,63,58,90,73,54,30.17,30.08,2,0,5,0.00
2014-10-13,81,71,66,73,68,66,100,91,65,30.00,29.78,12,3,15,1.41
2014-10-14,68,63,59,67,60,54,100,89,69,29.86,29.63,9,5,15,1.65
2014-10-15,63,58,54,58,54,52,100,88,69,29.88,29.83,7,2,7,0.71
2014-10-16,73,60,51,58,54,51,100,83,54,29.95,29.85,6,1,7,0.03
2014-10-17,82,65,50,62,56,50,100,77,46,29.93,29.85,9,2,13,0.00
2014-10-18,74,60,48,58,52,45,97,75,48,30.10,29.89,8,2,9,0.00
2014-10-19,72,56,44,53,48,43,99,79,48,30.19,30.06,6,1,9,0.00
2014-11-1,49,40,33,37,32,29,94,75,60,30.32,30.10,12,5,14,0.03
2014-11-2,60,40,29,38,32,28,98,77,34,30.45,30.32,7,1,13,0.00
2014-11-3,69,51,35,41,37,32,91,63,28,30.42,30.30,2,0,9,0.00
2014-11-4,72,58,49,45,41,37,70,54,29,30.31,30.17,10,1,11,0.00
2014-11-5,67,62,58,62,58,45,100,85,62,30.22,30.11,8,2,10,0.13
2014-11-6,67,60,47,62,51,37,100,76,38,30.16,30.01,10,3,12,0.29
2014-11-7,59,46,37,41,37,34,93,72,50,30.19,30.02,10,3,11,0.27
2014-11-18,35,26,20,21,18,16,90,73,48,30.39,30.22,8,2,8,0.60
2014-11-19,53,39,21,31,27,19,90,64,42,30.36,30.16,9,3,11,0.00
2014-11-20,58,45,34,40,34,27,81,67,48,30.26,30.18,5,1,6,0.00
2014-11-21,64,50,41,43,35,29,77,59,42,30.39,30.26,6,1,6,0.00
2014-11-22,65,53,43,47,38,34,69,53,45,30.35,30.08,7,3,7,0.00
2014-11-23,64,58,54,60,55,42,100,91,58,30.06,29.47,13,7,21,0.06
2014-11-24,65,56,41,59,46,37,89,71,56,30.06,29.59,13,4,15,0.32
2014-11-25,60,46,34,44,36,31,98,71,43,30.16,30.05,4,0,7,0.00
2014-11-26,55,44,28,39,33,26,93,68,45,30.15,29.98,9,2,13,0.01
2014-11-27,44,39,32,37,32,27,93,77,64,30.44,30.12,9,3,11,0.01
2014-11-28,51,37,26,30,26,24,92,69,38,30.42,30.18,5,0,6,0.00
2014-11-29,60,49,40,52,40,27,82,68,57,30.18,30.07,12,3,14,0.00
2014-11-30,71,62,56,57,55,52,93,80,59,30.26,30.10,12,6,16,0.00
2014-12-1,69,58,47,61,55,46,98,90,72,30.35,30.25,10,4,10,0.00
2014-12-2,55,51,47,55,51,46,100,100,96,30.29,30.20,3,0,5,0.01
2014-12-3,64,54,50,58,52,49,100,93,75,30.31,30.20,8,2,8,0.87
2014-12-4,74,58,46,60,54,46,100,87,60,30.27,30.16,8,1,8,0.00
2014-12-5,70,63,59,61,59,57,100,87,68,30.27,30.09,9,4,16,0.40
2014-12-6,64,54,45,64,53,43,100,92,85,30.37,30.06,13,6,16,0.51
2014-12-7,56,47,41,42,40,37,92,78,58,30.42,30.25,10,5,15,0.53
2014-12-8,55,47,41,39,35,32,90,65,50,30.29,30.17,6,1,9,0.00
2014-12-9,58,44,35,48,37,31,97,79,54,30.24,30.10,11,3,16,0.00
2014-12-10,39,24,39,34,21,33,82,61,80,30.24,30.22,6,5,6,0.00
2014-12-12,56,40,27,38,31,26,95,74,45,30.39,30.27,6,1,6,0.00
2014-12-13,48,40,30,42,35,26,91,83,73,30.33,30.20,8,2,8,0.00
2014-12-14,56,44,36,45,39,35,96,84,66,30.21,30.07,9,2,11,0.00
2014-12-15,57,46,34,56,44,34,100,94,68,30.07,29.87,5,1,8,0.60
2014-12-16,56,48,37,56,44,35,100,87,76,30.23,29.88,7,2,9,0.62
2014-12-17,47,42,37,41,39,34,92,88,78,30.27,30.19,7,3,7,0.00
2014-12-18,46,41,36,40,37,34,93,87,79,30.22,30.14,7,1,9,0.02
2014-12-19,44,39,32,38,35,32,99,86,73,30.24,30.16,9,3,11,0.02
2014-12-20,56,37,34,39,29,32,93,71,52,30.24,30.15,7,3,9,0.00
2014-12-21,54,44,31,49,39,29,96,85,71,30.20,30.00,7,1,7,0.00
2014-12-22,51,50,49,51,49,47,100,96,93,29.99,29.78,7,3,8,0.00
2014-12-23,55,53,51,55,53,51,100,100,100,29.83,29.64,8,3,10,0.01
2014-12-24,56,50,41,56,49,40,100,99,96,30.00,29.59,7,2,8,2.34
2014-12-25,51,42,36,43,39,36,100,90,68,30.29,30.01,6,1,7,0.40
2014-12-26,54,44,32,45,41,32,100,88,68,30.36,30.24,5,1,7,0.00
2014-12-27,55,50,44,54,46,40,100,82,76,30.33,30.10,7,2,9,0.26
2014-12-28,56,50,44,56,50,44,100,100,99,30.17,30.06,9,2,9,0.28
2014-12-29,47,43,40,47,43,40,100,100,99,30.24,30.11,8,3,9,0.40
2014-12-30,46,39,33,40,35,28,100,87,66,30.52,30.25,10,7,11,0.10
2014-12-31,48,36,29,34,28,25,89,73,52,30.55,30.42,9,4,11,0.01
2015-1-1,47,40,31,39,33,27,97,77,58,30.42,30.30,1,0,5,0.07
2015-1-2,50,45,40,50,44,39,100,99,96,30.40,30.18,7,1,6,0.07